Darstellungsparameter: Aktuell verwendete Einstellungen:
Skalierung der Graphiken ... ?
xyx+y,   Skalierungsfaktor:      Skalierung: Modus: x, Faktor: 1
Darstellungszeitraum ... ?
Vom - - bis: - -   Zeitraum: 22.07.2019 - 22.07.2019
Min/Max/Avg-Anzeige ... ?
Zeige MMA aktuell
Zeige MMA Monat
Zeige MMA alles
Zeige --A aktuell
Zeige --A Monat
Zeige --A alles
Keine MMA-Anzeige
MMA:
Keine MMA-Graphiken
MMA-Basis: 22.07.2019 - 22.07.2019
Quicknavigation für Darstellung... ?
Tage:      1T, 2T, 3T, 5T -1T -2T -3T -5T +1T +2T +3T +5T
Wochen: 1W, 2W, 3W -1W -2W -3W +1W +2W +3W
Monate: 1M, 3M, 6M -1M -3M -6M +1M +3M +6M
Jahre:    1J, 3J, 5J, 10J -1J -3J -5J -10J +1J +3J +5J +10J
Nutze für die Darstellung ... ?
Originaldaten oder Mittelwerte auf ...
Stundenbasis Tagesbasis Wochenbasis
Monatsbasis Jahresbasis      Datenbasis: Original-Daten
Darstellen als:
Statistik (Auto) Statistik J:M      Darstellung:
Zur Graphik,    zurück zur Übersicht aller Sensoren.
 
Tabellarische Datenbersicht: ?
 
Sensor: Nr:Datum:Temp:Feuchte:Taupunkt:
Aussen-T/F 1 22-07-2019 00:00:00 17.6 C 80 % 14.11 C
2 22-07-2019 00:05:00 17.5 C 80 % 14.01 C
3 22-07-2019 00:10:00 17.4 C 80 % 13.92 C
4 22-07-2019 00:15:00 17.3 C 80 % 13.82 C
5 22-07-2019 00:20:00 17.1 C 81 % 13.82 C
6 22-07-2019 00:25:00 17.1 C 81 % 13.82 C
7 22-07-2019 00:30:00 16.9 C 81 % 13.62 C
8 22-07-2019 00:35:00 16.9 C 82 % 13.81 C
9 22-07-2019 00:40:00 16.9 C 82 % 13.81 C
10 22-07-2019 00:45:00 16.8 C 82 % 13.71 C
11 22-07-2019 00:50:00 16.7 C 82 % 13.61 C
12 22-07-2019 00:55:00 16.7 C 82 % 13.61 C
13 22-07-2019 01:00:00 16.5 C 82 % 13.42 C
14 22-07-2019 01:05:00 16.4 C 83 % 13.51 C
15 22-07-2019 01:10:00 16.4 C 83 % 13.51 C
16 22-07-2019 01:15:00 16.3 C 84 % 13.59 C
17 22-07-2019 01:20:00 16.3 C 84 % 13.59 C
18 22-07-2019 01:25:00 16.2 C 84 % 13.5 C
19 22-07-2019 01:30:00 16.2 C 84 % 13.5 C
20 22-07-2019 01:35:00 16.1 C 85 % 13.58 C
21 22-07-2019 01:40:00 16 C 85 % 13.48 C
22 22-07-2019 01:45:00 15.9 C 85 % 13.38 C
23 22-07-2019 01:50:00 15.8 C 85 % 13.28 C
24 22-07-2019 01:55:00 15.8 C 86 % 13.46 C
25 22-07-2019 02:00:00 15.7 C 86 % 13.37 C
Sensor: Nr:Datum:Temp:Feuchte:Taupunkt:
Aussen-T/F 26 22-07-2019 02:05:00 15.7 C 87 % 13.54 C
27 22-07-2019 02:10:00 15.7 C 87 % 13.54 C
28 22-07-2019 02:15:00 15.7 C 87 % 13.54 C
29 22-07-2019 02:20:00 15.7 C 87 % 13.54 C
30 22-07-2019 02:25:00 15.7 C 87 % 13.54 C
31 22-07-2019 02:30:00 15.6 C 88 % 13.62 C
32 22-07-2019 02:35:00 15.6 C 88 % 13.62 C
33 22-07-2019 02:40:00 15.6 C 88 % 13.62 C
34 22-07-2019 02:45:00 15.6 C 88 % 13.62 C
35 22-07-2019 02:50:00 15.6 C 88 % 13.62 C
36 22-07-2019 02:55:00 15.5 C 88 % 13.52 C
37 22-07-2019 03:00:00 15.5 C 88 % 13.52 C
38 22-07-2019 03:05:00 15.5 C 88 % 13.52 C
39 22-07-2019 03:10:00 15.5 C 88 % 13.52 C
40 22-07-2019 03:15:00 15.4 C 88 % 13.42 C
41 22-07-2019 03:20:00 15.4 C 88 % 13.42 C
42 22-07-2019 03:25:00 15.4 C 88 % 13.42 C
43 22-07-2019 03:30:00 15.3 C 88 % 13.33 C
44 22-07-2019 03:35:00 15.3 C 88 % 13.33 C
45 22-07-2019 03:40:00 15.2 C 89 % 13.4 C
46 22-07-2019 03:45:00 15.2 C 89 % 13.4 C
47 22-07-2019 03:50:00 15.2 C 89 % 13.4 C
48 22-07-2019 03:55:00 15.1 C 89 % 13.3 C
49 22-07-2019 04:00:00 15.1 C 89 % 13.3 C
50 22-07-2019 04:05:00 15 C 89 % 13.2 C
Sensor: Nr:Datum:Temp:Feuchte:Taupunkt:
Aussen-T/F 51 22-07-2019 04:10:00 14.9 C 89 % 13.1 C
52 22-07-2019 04:15:00 14.8 C 89 % 13.01 C
53 22-07-2019 04:20:00 14.8 C 89 % 13.01 C
54 22-07-2019 04:25:00 14.7 C 89 % 12.91 C
55 22-07-2019 04:30:00 14.7 C 90 % 13.08 C
56 22-07-2019 04:35:00 14.6 C 90 % 12.98 C
57 22-07-2019 04:40:00 14.6 C 90 % 12.98 C
58 22-07-2019 04:45:00 14.6 C 90 % 12.98 C
59 22-07-2019 04:50:00 14.6 C 90 % 12.98 C
60 22-07-2019 04:55:00 14.5 C 90 % 12.88 C
61 22-07-2019 05:00:00 14.4 C 90 % 12.78 C
62 22-07-2019 05:05:00 14.4 C 90 % 12.78 C
63 22-07-2019 05:10:00 14.4 C 91 % 12.95 C
64 22-07-2019 05:15:00 14.3 C 91 % 12.85 C
65 22-07-2019 05:20:00 14.4 C 91 % 12.95 C
66 22-07-2019 05:25:00 14.3 C 91 % 12.85 C
67 22-07-2019 05:30:00 14.3 C 91 % 12.85 C
68 22-07-2019 05:35:00 14.3 C 91 % 12.85 C
69 22-07-2019 05:40:00 14.2 C 91 % 12.75 C
70 22-07-2019 05:45:00 14.2 C 91 % 12.75 C
71 22-07-2019 05:50:00 14.2 C 91 % 12.75 C
72 22-07-2019 05:55:00 14.2 C 92 % 12.92 C
73 22-07-2019 06:00:00 14.2 C 92 % 12.92 C
74 22-07-2019 06:05:00 14.2 C 92 % 12.92 C
75 22-07-2019 06:10:00 14.3 C 92 % 13.02 C
Sensor: Nr:Datum:Temp:Feuchte:Taupunkt:
Aussen-T/F 76 22-07-2019 06:15:00 14.3 C 92 % 13.02 C
77 22-07-2019 06:20:00 14.2 C 91 % 12.75 C
78 22-07-2019 06:25:00 14.1 C 91 % 12.65 C
79 22-07-2019 06:30:00 14.1 C 92 % 12.82 C
80 22-07-2019 06:35:00 14.1 C 92 % 12.82 C
81 22-07-2019 06:40:00 14.1 C 92 % 12.82 C
82 22-07-2019 06:45:00 14.1 C 92 % 12.82 C
83 22-07-2019 06:50:00 14.2 C 92 % 12.92 C
84 22-07-2019 06:55:00 14.2 C 92 % 12.92 C
85 22-07-2019 07:00:00 14.3 C 93 % 13.18 C
86 22-07-2019 07:05:00 14.3 C 93 % 13.18 C
87 22-07-2019 07:10:00 14.3 C 93 % 13.18 C
88 22-07-2019 07:15:00 14.4 C 93 % 13.28 C
89 22-07-2019 07:20:00 14.5 C 93 % 13.38 C
90 22-07-2019 07:25:00 14.7 C 93 % 13.58 C
91 22-07-2019 07:30:00 14.8 C 93 % 13.68 C
92 22-07-2019 07:35:00 14.9 C 93 % 13.78 C
93 22-07-2019 07:40:00 14.9 C 93 % 13.78 C
94 22-07-2019 07:45:00 15.1 C 92 % 13.81 C
95 22-07-2019 07:50:00 15.2 C 92 % 13.91 C
96 22-07-2019 07:55:00 15.3 C 92 % 14.01 C
97 22-07-2019 08:00:00 15.4 C 92 % 14.11 C
98 22-07-2019 08:05:00 15.5 C 92 % 14.21 C
99 22-07-2019 08:10:00 15.6 C 92 % 14.31 C
100 22-07-2019 08:15:00 15.7 C 91 % 14.24 C
Sensor: Nr:Datum:Temp:Feuchte:Taupunkt:
Aussen-T/F 101 22-07-2019 08:20:00 16 C 91 % 14.53 C
102 22-07-2019 08:25:00 16.2 C 89 % 14.39 C
103 22-07-2019 08:30:00 16.4 C 88 % 14.41 C
104 22-07-2019 08:35:00 16.6 C 88 % 14.6 C
105 22-07-2019 08:40:00 16.8 C 87 % 14.62 C
106 22-07-2019 08:45:00 16.9 C 87 % 14.72 C
107 22-07-2019 08:50:00 17.1 C 87 % 14.92 C
108 22-07-2019 08:55:00 17.2 C 87 % 15.02 C
109 22-07-2019 09:00:00 17.3 C 87 % 15.12 C
110 22-07-2019 09:05:00 17.4 C 86 % 15.03 C
111 22-07-2019 09:10:00 17.6 C 85 % 15.05 C
112 22-07-2019 09:15:00 17.7 C 86 % 15.33 C
113 22-07-2019 09:20:00 17.9 C 85 % 15.34 C
114 22-07-2019 09:25:00 18.1 C 83 % 15.17 C
115 22-07-2019 09:30:00 18.3 C 83 % 15.36 C
116 22-07-2019 09:35:00 18.6 C 82 % 15.47 C
117 22-07-2019 09:40:00 18.8 C 83 % 15.85 C
118 22-07-2019 09:45:00 18.8 C 82 % 15.66 C
119 22-07-2019 09:50:00 18.9 C 83 % 15.95 C
120 22-07-2019 09:55:00 19.1 C 82 % 15.96 C
121 22-07-2019 10:00:00 19.3 C 82 % 16.15 C
122 22-07-2019 10:05:00 19.5 C 81 % 16.15 C
123 22-07-2019 10:10:00 19.7 C 79 % 15.96 C
124 22-07-2019 10:15:00 19.8 C 77 % 15.65 C
125 22-07-2019 10:20:00 20.2 C 76 % 15.83 C
Sensor: Nr:Datum:Temp:Feuchte:Taupunkt:
Aussen-T/F 126 22-07-2019 10:25:00 20.6 C 76 % 16.22 C
127 22-07-2019 10:30:00 20.8 C 75 % 16.21 C
128 22-07-2019 10:35:00 21.2 C 72 % 15.95 C
129 22-07-2019 10:40:00 21.6 C 71 % 16.12 C
130 22-07-2019 10:45:00 22 C 72 % 16.72 C
131 22-07-2019 10:50:00 22.3 C 67 % 15.88 C
132 22-07-2019 10:55:00 22.7 C 63 % 15.3 C
133 22-07-2019 11:00:00 23.1 C 60 % 14.91 C
134 22-07-2019 11:05:00 23.3 C 61 % 15.36 C
135 22-07-2019 11:10:00 23.4 C 60 % 15.19 C
136 22-07-2019 11:15:00 23.6 C 61 % 15.64 C
137 22-07-2019 11:20:00 23.7 C 59 % 15.21 C
138 22-07-2019 11:25:00 23.8 C 59 % 15.31 C
139 22-07-2019 11:30:00 24.1 C 58 % 15.32 C
140 22-07-2019 11:35:00 24.3 C 57 % 15.24 C
141 22-07-2019 11:40:00 24.4 C 56 % 15.06 C
142 22-07-2019 11:45:00 24.6 C 56 % 15.24 C
143 22-07-2019 11:50:00 24.8 C 55 % 15.15 C
144 22-07-2019 11:55:00 25 C 54 % 15.05 C
145 22-07-2019 12:00:00 25.1 C 54 % 15.14 C
146 22-07-2019 12:05:00 25.3 C 53 % 15.03 C
147 22-07-2019 12:10:00 25.3 C 53 % 15.03 C
148 22-07-2019 12:15:00 25.3 C 53 % 15.03 C
149 22-07-2019 12:20:00 25.4 C 53 % 15.13 C
150 22-07-2019 12:25:00 25.4 C 53 % 15.13 C
Sensor: Nr:Datum:Temp:Feuchte:Taupunkt:
Aussen-T/F 151 22-07-2019 12:30:00 25.5 C 53 % 15.22 C
152 22-07-2019 12:35:00 25.7 C 53 % 15.4 C
153 22-07-2019 12:40:00 25.9 C 52 % 15.29 C
154 22-07-2019 12:45:00 25.9 C 52 % 15.29 C
155 22-07-2019 12:50:00 25.9 C 51 % 14.99 C
156 22-07-2019 12:55:00 26 C 51 % 15.08 C
157 22-07-2019 13:00:00 26 C 51 % 15.08 C
158 22-07-2019 13:05:00 26 C 51 % 15.08 C
159 22-07-2019 13:10:00 26.1 C 51 % 15.17 C
160 22-07-2019 13:15:00 26.2 C 51 % 15.27 C
161 22-07-2019 13:20:00 26.2 C 50 % 14.96 C
162 22-07-2019 13:25:00 26.3 C 51 % 15.36 C
163 22-07-2019 13:30:00 26.3 C 51 % 15.36 C
164 22-07-2019 13:35:00 26.4 C 50 % 15.14 C
165 22-07-2019 13:40:00 26.6 C 50 % 15.32 C
166 22-07-2019 13:45:00 26.7 C 50 % 15.42 C
167 22-07-2019 13:50:00 27 C 49 % 15.38 C
168 22-07-2019 13:55:00 27.2 C 47 % 14.91 C
169 22-07-2019 14:00:00 27.2 C 48 % 15.24 C
170 22-07-2019 14:05:00 27.3 C 47 % 15 C
171 22-07-2019 14:10:00 27.4 C 46 % 14.76 C
172 22-07-2019 14:15:00 27.7 C 46 % 15.03 C
173 22-07-2019 14:20:00 27.7 C 45 % 14.69 C
174 22-07-2019 14:25:00 27.7 C 45 % 14.69 C
175 22-07-2019 14:30:00 27.7 C 45 % 14.69 C
Sensor: Nr:Datum:Temp:Feuchte:Taupunkt:
Aussen-T/F 176 22-07-2019 14:35:00 27.8 C 47 % 15.45 C
177 22-07-2019 14:40:00 28.1 C 46 % 15.39 C
178 22-07-2019 14:45:00 28.3 C 45 % 15.23 C
179 22-07-2019 14:50:00 28.2 C 45 % 15.14 C
180 22-07-2019 14:55:00 28.2 C 44 % 14.79 C
181 22-07-2019 15:00:00 28.3 C 45 % 15.23 C
182 22-07-2019 15:05:00 28.4 C 45 % 15.32 C
183 22-07-2019 15:10:00 28.6 C 45 % 15.5 C
184 22-07-2019 15:15:00 28.8 C 44 % 15.33 C
185 22-07-2019 15:20:00 28.9 C 44 % 15.42 C
186 22-07-2019 15:25:00 29.1 C 42 % 14.88 C
187 22-07-2019 15:30:00 29.2 C 42 % 14.97 C
188 22-07-2019 15:35:00 29.1 C 42 % 14.88 C
189 22-07-2019 15:40:00 29.2 C 44 % 15.69 C
190 22-07-2019 15:45:00 29.4 C 42 % 15.15 C
191 22-07-2019 15:50:00 29.7 C 41 % 15.04 C
192 22-07-2019 15:55:00 29.9 C 41 % 15.22 C
193 22-07-2019 16:00:00 30.2 C 41 % 15.49 C
194 22-07-2019 16:05:00 30.4 C 39 % 14.89 C
195 22-07-2019 16:10:00 30.7 C 40 % 15.55 C
196 22-07-2019 16:15:00 30.8 C 39 % 15.24 C
197 22-07-2019 16:20:00 30.9 C 38 % 14.93 C
198 22-07-2019 16:25:00 30.8 C 39 % 15.24 C
199 22-07-2019 16:30:00 30.9 C 38 % 14.93 C
200 22-07-2019 16:35:00 30.8 C 38 % 14.84 C
Sensor: Nr:Datum:Temp:Feuchte:Taupunkt:
Aussen-T/F 201 22-07-2019 16:40:00 30.7 C 39 % 15.15 C
202 22-07-2019 16:45:00 31 C 39 % 15.42 C
203 22-07-2019 16:50:00 31.2 C 38 % 15.19 C
204 22-07-2019 16:55:00 31.3 C 37 % 14.87 C
205 22-07-2019 17:00:00 31.4 C 38 % 15.37 C
206 22-07-2019 17:05:00 31.6 C 37 % 15.13 C
207 22-07-2019 17:10:00 31.3 C 37 % 14.87 C
208 22-07-2019 17:15:00 31.2 C 37 % 14.78 C
209 22-07-2019 17:20:00 31.2 C 37 % 14.78 C
210 22-07-2019 17:25:00 31.3 C 37 % 14.87 C
211 22-07-2019 17:30:00 31.3 C 37 % 14.87 C
212 22-07-2019 17:35:00 31.4 C 37 % 14.96 C
213 22-07-2019 17:40:00 31.7 C 37 % 15.22 C
214 22-07-2019 17:45:00 31.8 C 36 % 14.88 C
215 22-07-2019 17:50:00 31.9 C 36 % 14.97 C
216 22-07-2019 17:55:00 32.1 C 36 % 15.15 C
217 22-07-2019 18:00:00 32.1 C 35 % 14.71 C
218 22-07-2019 18:05:00 32 C 36 % 15.06 C
219 22-07-2019 18:10:00 32 C 36 % 15.06 C
220 22-07-2019 18:15:00 32.1 C 36 % 15.15 C
221 22-07-2019 18:20:00 32.1 C 36 % 15.15 C
222 22-07-2019 18:25:00 32.2 C 36 % 15.23 C
223 22-07-2019 18:30:00 32.3 C 35 % 14.88 C
224 22-07-2019 18:35:00 32.3 C 35 % 14.88 C
225 22-07-2019 18:40:00 32.6 C 35 % 15.15 C
Sensor: Nr:Datum:Temp:Feuchte:Taupunkt:
Aussen-T/F 226 22-07-2019 18:45:00 32.7 C 35 % 15.23 C
227 22-07-2019 18:50:00 32.8 C 34 % 14.87 C
228 22-07-2019 18:55:00 32.6 C 35 % 15.15 C
229 22-07-2019 19:00:00 32.3 C 36 % 15.32 C
230 22-07-2019 19:05:00 32.3 C 35 % 14.88 C
231 22-07-2019 19:10:00 32.2 C 34 % 14.35 C
232 22-07-2019 19:15:00 32 C 35 % 14.62 C
233 22-07-2019 19:20:00 31.9 C 35 % 14.53 C
234 22-07-2019 19:25:00 31.9 C 36 % 14.97 C
235 22-07-2019 19:30:00 31.7 C 36 % 14.79 C
236 22-07-2019 19:35:00 31.2 C 37 % 14.78 C
237 22-07-2019 19:40:00 30.8 C 37 % 14.43 C
238 22-07-2019 19:45:00 30.7 C 38 % 14.75 C
239 22-07-2019 19:50:00 30.4 C 38 % 14.49 C
240 22-07-2019 19:55:00 30.3 C 39 % 14.8 C
241 22-07-2019 20:00:00 30.2 C 40 % 15.1 C
242 22-07-2019 20:05:00 30.1 C 40 % 15.01 C
243 22-07-2019 20:10:00 30 C 40 % 14.93 C
244 22-07-2019 20:15:00 29.9 C 40 % 14.84 C
245 22-07-2019 20:20:00 29.8 C 40 % 14.75 C
246 22-07-2019 20:25:00 29.7 C 42 % 15.42 C
247 22-07-2019 20:30:00 29.4 C 42 % 15.15 C
248 22-07-2019 20:35:00 29.3 C 43 % 15.42 C
249 22-07-2019 20:40:00 29.1 C 44 % 15.6 C
250 22-07-2019 20:45:00 28.8 C 45 % 15.68 C
Sensor: Nr:Datum:Temp:Feuchte:Taupunkt:
Aussen-T/F 251 22-07-2019 20:50:00 28.6 C 48 % 16.51 C
252 22-07-2019 20:55:00 28.2 C 51 % 17.1 C
253 22-07-2019 21:00:00 27.9 C 51 % 16.83 C
254 22-07-2019 21:05:00 27.4 C 52 % 16.67 C
255 22-07-2019 21:10:00 26.9 C 53 % 16.51 C
256 22-07-2019 21:15:00 26.4 C 55 % 16.63 C
257 22-07-2019 21:20:00 26 C 56 % 16.54 C
258 22-07-2019 21:25:00 25.6 C 57 % 16.45 C
259 22-07-2019 21:30:00 25.2 C 57 % 16.08 C
260 22-07-2019 21:35:00 24.8 C 58 % 15.98 C
261 22-07-2019 21:40:00 24.6 C 58 % 15.79 C
262 22-07-2019 21:45:00 24.3 C 60 % 16.04 C
263 22-07-2019 21:50:00 24.1 C 60 % 15.85 C
264 22-07-2019 21:55:00 23.9 C 61 % 15.92 C
265 22-07-2019 22:00:00 23.7 C 61 % 15.73 C
266 22-07-2019 22:05:00 23.6 C 61 % 15.64 C
267 22-07-2019 22:10:00 23.4 C 62 % 15.71 C
268 22-07-2019 22:15:00 23.3 C 62 % 15.61 C
269 22-07-2019 22:20:00 23.1 C 62 % 15.42 C
270 22-07-2019 22:25:00 22.9 C 63 % 15.48 C
271 22-07-2019 22:30:00 22.8 C 64 % 15.64 C
272 22-07-2019 22:35:00 22.6 C 65 % 15.69 C
273 22-07-2019 22:40:00 22.4 C 66 % 15.74 C
274 22-07-2019 22:45:00 22.3 C 66 % 15.64 C
275 22-07-2019 22:50:00 22.1 C 66 % 15.45 C
Sensor: Nr:Datum:Temp:Feuchte:Taupunkt:
Aussen-T/F 276 22-07-2019 22:55:00 22 C 66 % 15.36 C
277 22-07-2019 23:00:00 21.9 C 67 % 15.5 C
278 22-07-2019 23:05:00 21.7 C 68 % 15.54 C
279 22-07-2019 23:10:00 21.4 C 69 % 15.48 C
280 22-07-2019 23:15:00 21.2 C 70 % 15.51 C
281 22-07-2019 23:20:00 21.1 C 70 % 15.42 C
282 22-07-2019 23:25:00 21 C 71 % 15.54 C
283 22-07-2019 23:30:00 20.8 C 72 % 15.57 C
284 22-07-2019 23:35:00 20.7 C 72 % 15.47 C
285 22-07-2019 23:40:00 20.5 C 72 % 15.28 C
286 22-07-2019 23:45:00 20.4 C 73 % 15.4 C
287 22-07-2019 23:50:00 20.3 C 74 % 15.51 C
288 22-07-2019 23:55:00 20.1 C 74 % 15.32 C

Legende:
   Min
   Max


Maximal/Minimal-Werte vom 22.07.2019 - 22.07.2019

Sensor Min Max Avg
Temp
(Aussen-T/F)
14.1 °C
22-07-2019  06:25:00
32.8 °C
22-07-2019  18:50:00
22.3 °C
Feuchte
(Aussen-T/F)
34 %
22-07-2019  18:50:00
93 %
22-07-2019  07:00:00
66.01 %
Taupunkt
(Aussen-T/F)
12.65 C
22-07-2019  06:25:00
17.1 C
22-07-2019  20:55:00
14.57 C

Die Daten stammen von einer Davis Vantage Pro 2 Wetter-Station und werden unter Linux mit der Software wview2wettercgi und aufbereitet. Alle Angaben erfolgen ohne Gewähr für ihre Vollständigkeit oder Richtigkeit.
Kontakt: Rainer Krienke krienke@uni-koblenz.de . Meine Webseiten an der Uni Koblenz oder privat.
Version: $Revision: 0.78 $